sensor_id;sensor_type;location;lat;lon;timestamp;pressure;altitude;pressure_sealevel;temperature;humidity
59154;BME280;44935;48.944;9.418;2022-09-09T00:00:17;98328.75;;;17.18;47.48
59154;BME280;44935;48.944;9.418;2022-09-09T00:02:49;98323.56;;;16.98;47.14
59154;BME280;44935;48.944;9.418;2022-09-09T00:05:25;98324.81;;;17.11;48.07
59154;BME280;44935;48.944;9.418;2022-09-09T00:07:55;98327.02;;;16.80;47.94
59154;BME280;44935;48.944;9.418;2022-09-09T00:10:29;98324.98;;;16.63;48.26
59154;BME280;44935;48.944;9.418;2022-09-09T00:13:04;98329.06;;;16.72;48.22
59154;BME280;44935;48.944;9.418;2022-09-09T00:15:36;98328.13;;;16.74;47.95
59154;BME280;44935;48.944;9.418;2022-09-09T00:18:15;98328.08;;;16.39;48.38
59154;BME280;44935;48.944;9.418;2022-09-09T00:20:49;98328.00;;;15.96;49.66
59154;BME280;44935;48.944;9.418;2022-09-09T00:23:25;98327.14;;;15.98;49.31
59154;BME280;44935;48.944;9.418;2022-09-09T00:25:59;98321.25;;;16.25;49.04
59154;BME280;44935;48.944;9.418;2022-09-09T00:28:32;98323.61;;;16.10;48.79
59154;BME280;44935;48.944;9.418;2022-09-09T00:31:07;98316.78;;;16.40;48.58
59154;BME280;44935;48.944;9.418;2022-09-09T00:33:38;98315.31;;;16.57;48.45
59154;BME280;44935;48.944;9.418;2022-09-09T00:36:13;98312.96;;;16.91;47.79
59154;BME280;44935;48.944;9.418;2022-09-09T00:38:43;98314.91;;;16.08;48.73
59154;BME280;44935;48.944;9.418;2022-09-09T00:41:18;98314.54;;;16.34;48.76
59154;BME280;44935;48.944;9.418;2022-09-09T00:43:55;98312.85;;;16.71;47.52
59154;BME280;44935;48.944;9.418;2022-09-09T00:46:40;98311.74;;;16.38;48.19
59154;BME280;44935;48.944;9.418;2022-09-09T00:49:15;98317.68;;;16.07;48.48
59154;BME280;44935;48.944;9.418;2022-09-09T00:51:54;98322.00;;;16.35;48.30
59154;BME280;44935;48.944;9.418;2022-09-09T00:54:34;98318.88;;;16.12;49.31
59154;BME280;44935;48.944;9.418;2022-09-09T00:57:14;98319.70;;;16.29;49.03
59154;BME280;44935;48.944;9.418;2022-09-09T00:59:47;98319.25;;;16.43;48.85
59154;BME280;44935;48.944;9.418;2022-09-09T01:02:25;98318.04;;;15.62;50.16
59154;BME280;44935;48.944;9.418;2022-09-09T01:04:52;98318.45;;;15.14;51.50
59154;BME280;44935;48.944;9.418;2022-09-09T01:07:19;98318.80;;;16.31;49.48
59154;BME280;44935;48.944;9.418;2022-09-09T01:09:54;98321.81;;;16.52;48.81
59154;BME280;44935;48.944;9.418;2022-09-09T01:12:30;98325.86;;;16.38;48.48
59154;BME280;44935;48.944;9.418;2022-09-09T01:15:09;98333.21;;;16.03;50.07
59154;BME280;44935;48.944;9.418;2022-09-09T01:17:52;98331.67;;;15.66;49.86
59154;BME280;44935;48.944;9.418;2022-09-09T01:20:23;98331.13;;;16.00;49.38
59154;BME280;44935;48.944;9.418;2022-09-09T01:23:10;98327.39;;;16.42;48.47
59154;BME280;44935;48.944;9.418;2022-09-09T01:26:21;98324.83;;;16.90;47.53
59154;BME280;44935;48.944;9.418;2022-09-09T01:28:52;98326.45;;;16.69;48.17
59154;BME280;44935;48.944;9.418;2022-09-09T01:31:21;98322.69;;;16.73;47.95
59154;BME280;44935;48.944;9.418;2022-09-09T01:33:49;98325.09;;;16.78;47.87
59154;BME280;44935;48.944;9.418;2022-09-09T01:36:24;98324.22;;;16.34;48.83
59154;BME280;44935;48.944;9.418;2022-09-09T01:38:53;98318.00;;;17.09;47.12
59154;BME280;44935;48.944;9.418;2022-09-09T01:41:20;98319.71;;;17.57;46.89
59154;BME280;44935;48.944;9.418;2022-09-09T01:43:48;98321.58;;;17.01;47.39
59154;BME280;44935;48.944;9.418;2022-09-09T01:46:16;98328.64;;;16.49;48.95
59154;BME280;44935;48.944;9.418;2022-09-09T01:48:43;98330.18;;;16.46;48.46
59154;BME280;44935;48.944;9.418;2022-09-09T01:51:12;98333.32;;;16.37;49.30
59154;BME280;44935;48.944;9.418;2022-09-09T01:53:40;98334.60;;;16.54;49.13
59154;BME280;44935;48.944;9.418;2022-09-09T01:56:15;98337.53;;;16.56;49.12
59154;BME280;44935;48.944;9.418;2022-09-09T01:59:03;98335.66;;;16.72;48.96
59154;BME280;44935;48.944;9.418;2022-09-09T02:01:43;98339.05;;;16.93;48.45
59154;BME280;44935;48.944;9.418;2022-09-09T02:04:24;98338.84;;;17.14;48.38
59154;BME280;44935;48.944;9.418;2022-09-09T02:06:56;98337.36;;;16.75;48.73
59154;BME280;44935;48.944;9.418;2022-09-09T02:09:24;98335.76;;;17.15;48.13
59154;BME280;44935;48.944;9.418;2022-09-09T02:12:10;98328.54;;;17.28;47.26
59154;BME280;44935;48.944;9.418;2022-09-09T02:14:41;98323.77;;;17.13;47.46
59154;BME280;44935;48.944;9.418;2022-09-09T02:17:11;98323.57;;;17.07;47.48
59154;BME280;44935;48.944;9.418;2022-09-09T02:19:45;98322.44;;;17.40;47.50
59154;BME280;44935;48.944;9.418;2022-09-09T02:22:13;98317.38;;;15.27;52.00
59154;BME280;44935;48.944;9.418;2022-09-09T02:24:42;98315.70;;;16.70;48.84
59154;BME280;44935;48.944;9.418;2022-09-09T02:27:10;98314.68;;;15.64;50.66
59154;BME280;44935;48.944;9.418;2022-09-09T02:29:40;98309.51;;;16.14;50.02
59154;BME280;44935;48.944;9.418;2022-09-09T02:32:11;98303.19;;;17.21;47.19
59154;BME280;44935;48.944;9.418;2022-09-09T02:34:43;98313.08;;;17.11;48.03
59154;BME280;44935;48.944;9.418;2022-09-09T02:37:12;98320.06;;;15.52;50.01
59154;BME280;44935;48.944;9.418;2022-09-09T02:39:41;98328.21;;;16.10;49.80
59154;BME280;44935;48.944;9.418;2022-09-09T02:42:08;98330.58;;;16.20;50.21
59154;BME280;44935;48.944;9.418;2022-09-09T02:44:35;98327.81;;;16.34;49.36
59154;BME280;44935;48.944;9.418;2022-09-09T02:47:15;98326.64;;;16.73;49.47
59154;BME280;44935;48.944;9.418;2022-09-09T02:49:51;98318.81;;;14.04;54.49
59154;BME280;44935;48.944;9.418;2022-09-09T02:52:29;98325.68;;;14.21;54.48
59154;BME280;44935;48.944;9.418;2022-09-09T02:55:05;98322.87;;;15.43;52.11
59154;BME280;44935;48.944;9.418;2022-09-09T02:57:34;98332.02;;;15.14;52.47
59154;BME280;44935;48.944;9.418;2022-09-09T03:00:03;98337.56;;;15.09;52.61
59154;BME280;44935;48.944;9.418;2022-09-09T03:02:30;98336.83;;;15.19;52.86
59154;BME280;44935;48.944;9.418;2022-09-09T03:04:57;98334.56;;;15.38;51.54
59154;BME280;44935;48.944;9.418;2022-09-09T03:07:24;98333.25;;;14.28;53.87
59154;BME280;44935;48.944;9.418;2022-09-09T03:09:51;98328.33;;;14.26;53.88
59154;BME280;44935;48.944;9.418;2022-09-09T03:12:18;98326.70;;;14.57;53.11
59154;BME280;44935;48.944;9.418;2022-09-09T03:14:45;98320.48;;;15.07;51.89
59154;BME280;44935;48.944;9.418;2022-09-09T03:17:12;98315.75;;;13.97;54.62
59154;BME280;44935;48.944;9.418;2022-09-09T03:19:38;98313.30;;;13.93;54.05
59154;BME280;44935;48.944;9.418;2022-09-09T03:22:05;98311.41;;;15.35;51.50
59154;BME280;44935;48.944;9.418;2022-09-09T03:24:32;98305.98;;;13.83;54.45
59154;BME280;44935;48.944;9.418;2022-09-09T03:26:59;98303.76;;;14.33;53.32
59154;BME280;44935;48.944;9.418;2022-09-09T03:29:26;98308.94;;;16.04;48.99
59154;BME280;44935;48.944;9.418;2022-09-09T03:31:53;98306.26;;;14.10;53.24
59154;BME280;44935;48.944;9.418;2022-09-09T03:34:20;98307.88;;;13.41;55.27
59154;BME280;44935;48.944;9.418;2022-09-09T03:36:47;98299.43;;;11.83;59.65
59154;BME280;44935;48.944;9.418;2022-09-09T03:39:13;98298.27;;;12.22;59.11
59154;BME280;44935;48.944;9.418;2022-09-09T03:41:40;98304.90;;;15.49;51.84
59154;BME280;44935;48.944;9.418;2022-09-09T03:44:07;98310.11;;;14.67;52.19
59154;BME280;44935;48.944;9.418;2022-09-09T03:46:34;98314.50;;;15.79;49.75
59154;BME280;44935;48.944;9.418;2022-09-09T03:49:01;98317.63;;;14.28;52.41
59154;BME280;44935;48.944;9.418;2022-09-09T03:51:28;98323.32;;;13.65;54.64
59154;BME280;44935;48.944;9.418;2022-09-09T03:53:55;98319.73;;;15.69;50.09
59154;BME280;44935;48.944;9.418;2022-09-09T03:56:22;98322.47;;;16.64;47.75
59154;BME280;44935;48.944;9.418;2022-09-09T03:58:49;98328.27;;;16.43;48.29
59154;BME280;44935;48.944;9.418;2022-09-09T04:01:15;98326.45;;;16.25;48.75
59154;BME280;44935;48.944;9.418;2022-09-09T04:03:43;98323.37;;;16.31;48.89
59154;BME280;44935;48.944;9.418;2022-09-09T04:06:11;98318.49;;;16.46;48.37
59154;BME280;44935;48.944;9.418;2022-09-09T04:08:38;98318.67;;;16.29;48.36
59154;BME280;44935;48.944;9.418;2022-09-09T04:11:05;98314.21;;;16.46;47.59
59154;BME280;44935;48.944;9.418;2022-09-09T04:13:34;98318.17;;;17.04;46.63
59154;BME280;44935;48.944;9.418;2022-09-09T04:16:03;98321.28;;;17.15;46.26
59154;BME280;44935;48.944;9.418;2022-09-09T04:18:30;98320.23;;;16.92;45.85
59154;BME280;44935;48.944;9.418;2022-09-09T04:20:58;98325.28;;;17.00;46.42
59154;BME280;44935;48.944;9.418;2022-09-09T04:23:27;98322.76;;;16.36;47.32
59154;BME280;44935;48.944;9.418;2022-09-09T04:25:55;98315.31;;;17.34;45.42
59154;BME280;44935;48.944;9.418;2022-09-09T04:28:25;98316.52;;;16.86;46.49
59154;BME280;44935;48.944;9.418;2022-09-09T04:30:52;98319.83;;;16.90;46.05
59154;BME280;44935;48.944;9.418;2022-09-09T04:33:19;98319.25;;;17.20;45.92
59154;BME280;44935;48.944;9.418;2022-09-09T04:35:47;98324.55;;;16.98;45.91
59154;BME280;44935;48.944;9.418;2022-09-09T04:38:15;98328.39;;;16.46;47.32
59154;BME280;44935;48.944;9.418;2022-09-09T04:40:44;98329.71;;;16.10;47.87
59154;BME280;44935;48.944;9.418;2022-09-09T04:43:13;98330.27;;;16.52;47.59
59154;BME280;44935;48.944;9.418;2022-09-09T04:45:40;98329.89;;;16.25;47.54
59154;BME280;44935;48.944;9.418;2022-09-09T04:48:07;98336.32;;;16.35;47.89
59154;BME280;44935;48.944;9.418;2022-09-09T04:50:34;98339.30;;;15.96;48.96
59154;BME280;44935;48.944;9.418;2022-09-09T04:53:02;98340.06;;;16.17;47.72
59154;BME280;44935;48.944;9.418;2022-09-09T04:55:29;98336.73;;;15.71;48.95
59154;BME280;44935;48.944;9.418;2022-09-09T04:57:56;98336.11;;;15.83;49.18
59154;BME280;44935;48.944;9.418;2022-09-09T05:00:23;98341.67;;;13.04;54.98
59154;BME280;44935;48.944;9.418;2022-09-09T05:02:50;98342.98;;;15.07;50.88
59154;BME280;44935;48.944;9.418;2022-09-09T05:05:17;98351.87;;;15.49;49.63
59154;BME280;44935;48.944;9.418;2022-09-09T05:07:44;98355.30;;;15.64;49.86
59154;BME280;44935;48.944;9.418;2022-09-09T05:10:11;98356.89;;;16.07;49.32
59154;BME280;44935;48.944;9.418;2022-09-09T05:12:38;98360.96;;;15.59;50.09
59154;BME280;44935;48.944;9.418;2022-09-09T05:15:06;98361.20;;;15.62;49.71
59154;BME280;44935;48.944;9.418;2022-09-09T05:17:33;98361.42;;;16.06;49.56
59154;BME280;44935;48.944;9.418;2022-09-09T05:20:00;98358.58;;;16.13;49.30
59154;BME280;44935;48.944;9.418;2022-09-09T05:22:26;98359.10;;;16.39;48.85
59154;BME280;44935;48.944;9.418;2022-09-09T05:24:53;98360.16;;;16.07;49.35
59154;BME280;44935;48.944;9.418;2022-09-09T05:27:20;98363.53;;;15.95;49.91
59154;BME280;44935;48.944;9.418;2022-09-09T05:29:47;98364.94;;;15.47;50.34
59154;BME280;44935;48.944;9.418;2022-09-09T05:32:14;98365.76;;;15.82;50.30
59154;BME280;44935;48.944;9.418;2022-09-09T05:34:41;98362.87;;;16.30;49.23
59154;BME280;44935;48.944;9.418;2022-09-09T05:37:08;98362.62;;;15.41;50.71
59154;BME280;44935;48.944;9.418;2022-09-09T05:39:35;98364.88;;;15.54;51.37
59154;BME280;44935;48.944;9.418;2022-09-09T05:42:02;98363.79;;;14.41;53.11
59154;BME280;44935;48.944;9.418;2022-09-09T05:44:28;98368.03;;;14.54;53.41
59154;BME280;44935;48.944;9.418;2022-09-09T05:46:55;98370.89;;;15.80;51.06
59154;BME280;44935;48.944;9.418;2022-09-09T05:49:22;98370.97;;;15.86;50.06
59154;BME280;44935;48.944;9.418;2022-09-09T05:51:49;98370.52;;;16.81;48.00
59154;BME280;44935;48.944;9.418;2022-09-09T05:54:16;98373.95;;;17.03;48.34
59154;BME280;44935;48.944;9.418;2022-09-09T05:56:44;98376.62;;;17.03;48.22
59154;BME280;44935;48.944;9.418;2022-09-09T05:59:10;98380.28;;;17.13;48.25
59154;BME280;44935;48.944;9.418;2022-09-09T06:01:38;98389.62;;;16.33;49.26
59154;BME280;44935;48.944;9.418;2022-09-09T06:04:05;98384.14;;;15.73;50.92
59154;BME280;44935;48.944;9.418;2022-09-09T06:06:33;98382.85;;;16.64;48.91
59154;BME280;44935;48.944;9.418;2022-09-09T06:09:00;98380.78;;;14.46;53.12
59154;BME280;44935;48.944;9.418;2022-09-09T06:11:29;98380.69;;;16.54;49.36
59154;BME280;44935;48.944;9.418;2022-09-09T06:13:56;98375.32;;;17.04;48.56
59154;BME280;44935;48.944;9.418;2022-09-09T06:16:24;98373.39;;;16.57;48.73
59154;BME280;44935;48.944;9.418;2022-09-09T06:18:52;98371.24;;;17.08;47.45
59154;BME280;44935;48.944;9.418;2022-09-09T06:21:21;98373.16;;;17.70;46.24
59154;BME280;44935;48.944;9.418;2022-09-09T06:23:48;98375.74;;;17.81;46.52
59154;BME280;44935;48.944;9.418;2022-09-09T06:26:17;98376.58;;;18.27;45.29
59154;BME280;44935;48.944;9.418;2022-09-09T06:28:45;98372.74;;;15.18;51.71
59154;BME280;44935;48.944;9.418;2022-09-09T06:31:14;98372.38;;;15.29;51.06
59154;BME280;44935;48.944;9.418;2022-09-09T06:33:42;98373.55;;;17.54;47.73
59154;BME280;44935;48.944;9.418;2022-09-09T06:36:12;98370.43;;;16.92;48.32
59154;BME280;44935;48.944;9.418;2022-09-09T06:38:40;98373.16;;;17.67;46.75
59154;BME280;44935;48.944;9.418;2022-09-09T06:41:09;98376.72;;;18.08;45.97
59154;BME280;44935;48.944;9.418;2022-09-09T06:43:37;98377.49;;;15.76;50.07
59154;BME280;44935;48.944;9.418;2022-09-09T06:46:12;98377.68;;;17.82;46.57
59154;BME280;44935;48.944;9.418;2022-09-09T06:48:40;98375.53;;;15.19;51.34
59154;BME280;44935;48.944;9.418;2022-09-09T06:51:09;98377.90;;;16.51;49.13
59154;BME280;44935;48.944;9.418;2022-09-09T06:53:37;98381.41;;;18.25;46.04
59154;BME280;44935;48.944;9.418;2022-09-09T06:56:19;98382.87;;;18.46;45.00
59154;BME280;44935;48.944;9.418;2022-09-09T06:58:47;98385.15;;;18.58;45.38
59154;BME280;44935;48.944;9.418;2022-09-09T07:01:16;98384.84;;;18.23;45.88
59154;BME280;44935;48.944;9.418;2022-09-09T07:03:45;98385.91;;;18.52;45.69
59154;BME280;44935;48.944;9.418;2022-09-09T07:06:14;98385.49;;;18.59;45.38
59154;BME280;44935;48.944;9.418;2022-09-09T07:08:41;98383.94;;;18.34;46.01
59154;BME280;44935;48.944;9.418;2022-09-09T07:11:09;98387.62;;;18.82;45.94
59154;BME280;44935;48.944;9.418;2022-09-09T07:13:37;98393.07;;;18.77;45.78
59154;BME280;44935;48.944;9.418;2022-09-09T07:16:05;98393.90;;;19.20;44.35
59154;BME280;44935;48.944;9.418;2022-09-09T07:18:32;98384.90;;;17.50;47.75
59154;BME280;44935;48.944;9.418;2022-09-09T07:20:59;98391.93;;;18.74;45.81
59154;BME280;44935;48.944;9.418;2022-09-09T07:23:26;98388.11;;;18.13;46.43
59154;BME280;44935;48.944;9.418;2022-09-09T07:25:53;98383.93;;;18.54;45.89
59154;BME280;44935;48.944;9.418;2022-09-09T07:28:20;98382.70;;;16.47;48.54
59154;BME280;44935;48.944;9.418;2022-09-09T07:30:53;98389.09;;;18.86;46.19
59154;BME280;44935;48.944;9.418;2022-09-09T07:33:21;98382.26;;;17.44;47.80
59154;BME280;44935;48.944;9.418;2022-09-09T07:35:49;98391.27;;;18.11;46.13
59154;BME280;44935;48.944;9.418;2022-09-09T07:38:16;98390.11;;;18.52;45.11
59154;BME280;44935;48.944;9.418;2022-09-09T07:40:43;98397.35;;;18.84;44.29
59154;BME280;44935;48.944;9.418;2022-09-09T07:43:10;98394.09;;;19.57;43.53
59154;BME280;44935;48.944;9.418;2022-09-09T07:45:37;98394.49;;;19.28;43.84
59154;BME280;44935;48.944;9.418;2022-09-09T07:48:05;98395.12;;;18.71;45.64
59154;BME280;44935;48.944;9.418;2022-09-09T07:50:32;98392.32;;;18.89;44.33
59154;BME280;44935;48.944;9.418;2022-09-09T07:52:59;98390.52;;;19.30;43.86
59154;BME280;44935;48.944;9.418;2022-09-09T07:55:26;98391.93;;;19.61;43.66
59154;BME280;44935;48.944;9.418;2022-09-09T07:57:53;98387.17;;;19.60;42.69
59154;BME280;44935;48.944;9.418;2022-09-09T08:00:20;98381.94;;;20.20;41.37
59154;BME280;44935;48.944;9.418;2022-09-09T08:02:47;98388.17;;;19.55;42.25
59154;BME280;44935;48.944;9.418;2022-09-09T08:05:14;98381.63;;;20.26;42.19
59154;BME280;44935;48.944;9.418;2022-09-09T08:07:42;98388.65;;;19.79;42.27
59154;BME280;44935;48.944;9.418;2022-09-09T08:10:09;98396.24;;;19.29;42.75
59154;BME280;44935;48.944;9.418;2022-09-09T08:12:36;98402.74;;;19.46;43.37
59154;BME280;44935;48.944;9.418;2022-09-09T08:15:04;98406.92;;;19.40;42.84
59154;BME280;44935;48.944;9.418;2022-09-09T08:17:31;98409.45;;;19.03;43.50
59154;BME280;44935;48.944;9.418;2022-09-09T08:19:58;98408.21;;;19.17;43.63
59154;BME280;44935;48.944;9.418;2022-09-09T08:22:25;98398.08;;;19.85;41.96
59154;BME280;44935;48.944;9.418;2022-09-09T08:24:52;98399.23;;;18.72;43.67
59154;BME280;44935;48.944;9.418;2022-09-09T08:27:19;98387.48;;;20.33;40.87
59154;BME280;44935;48.944;9.418;2022-09-09T08:29:45;98393.00;;;20.44;40.03
59154;BME280;44935;48.944;9.418;2022-09-09T08:32:13;98405.34;;;19.76;41.22
59154;BME280;44935;48.944;9.418;2022-09-09T08:34:40;98410.77;;;19.61;41.29
59154;BME280;44935;48.944;9.418;2022-09-09T08:37:07;98405.97;;;19.86;41.21
59154;BME280;44935;48.944;9.418;2022-09-09T08:39:34;98403.53;;;20.52;41.64
59154;BME280;44935;48.944;9.418;2022-09-09T08:42:13;98399.38;;;20.33;40.63
59154;BME280;44935;48.944;9.418;2022-09-09T08:44:54;98401.31;;;20.10;40.29
59154;BME280;44935;48.944;9.418;2022-09-09T08:47:34;98408.62;;;20.65;39.70
59154;BME280;44935;48.944;9.418;2022-09-09T08:50:13;98411.53;;;20.49;40.33
59154;BME280;44935;48.944;9.418;2022-09-09T08:52:51;98412.78;;;20.59;40.52
59154;BME280;44935;48.944;9.418;2022-09-09T08:55:25;98410.90;;;20.00;40.47
59154;BME280;44935;48.944;9.418;2022-09-09T08:57:57;98406.51;;;20.36;40.16
59154;BME280;44935;48.944;9.418;2022-09-09T09:00:30;98404.97;;;20.40;39.72
59154;BME280;44935;48.944;9.418;2022-09-09T09:03:07;98399.03;;;20.63;39.37
59154;BME280;44935;48.944;9.418;2022-09-09T09:05:46;98398.28;;;20.97;39.07
59154;BME280;44935;48.944;9.418;2022-09-09T09:08:20;98393.75;;;21.32;38.33
59154;BME280;44935;48.944;9.418;2022-09-09T09:10:54;98392.19;;;21.09;37.26
59154;BME280;44935;48.944;9.418;2022-09-09T09:13:27;98396.54;;;20.80;37.56
59154;BME280;44935;48.944;9.418;2022-09-09T09:16:00;98396.59;;;19.93;39.39
59154;BME280;44935;48.944;9.418;2022-09-09T09:18:29;98392.41;;;20.76;38.59
59154;BME280;44935;48.944;9.418;2022-09-09T09:21:02;98390.99;;;20.13;39.17
59154;BME280;44935;48.944;9.418;2022-09-09T09:23:36;98394.18;;;19.90;39.56
59154;BME280;44935;48.944;9.418;2022-09-09T09:26:09;98389.09;;;19.81;39.98
59154;BME280;44935;48.944;9.418;2022-09-09T09:28:36;98384.16;;;19.42;40.23
59154;BME280;44935;48.944;9.418;2022-09-09T09:31:05;98382.24;;;20.32;39.28
59154;BME280;44935;48.944;9.418;2022-09-09T09:33:35;98377.30;;;20.77;38.90
59154;BME280;44935;48.944;9.418;2022-09-09T09:36:04;98369.82;;;21.11;38.27
59154;BME280;44935;48.944;9.418;2022-09-09T09:38:32;98370.64;;;20.90;38.20
59154;BME280;44935;48.944;9.418;2022-09-09T09:40:59;98365.18;;;21.61;37.26
59154;BME280;44935;48.944;9.418;2022-09-09T09:43:28;98367.21;;;20.82;38.88
59154;BME280;44935;48.944;9.418;2022-09-09T09:45:55;98371.12;;;20.70;38.58
59154;BME280;44935;48.944;9.418;2022-09-09T09:48:22;98376.34;;;21.07;38.59
59154;BME280;44935;48.944;9.418;2022-09-09T09:50:51;98370.00;;;20.52;42.03
59154;BME280;44935;48.944;9.418;2022-09-09T09:53:23;98368.27;;;20.45;43.63
59154;BME280;44935;48.944;9.418;2022-09-09T09:55:55;98363.53;;;19.86;43.64
59154;BME280;44935;48.944;9.418;2022-09-09T09:58:25;98362.78;;;20.62;44.77
59154;BME280;44935;48.944;9.418;2022-09-09T10:00:54;98361.90;;;19.96;45.70
59154;BME280;44935;48.944;9.418;2022-09-09T10:03:25;98356.13;;;19.98;45.29
59154;BME280;44935;48.944;9.418;2022-09-09T10:05:52;98350.86;;;19.70;44.12
59154;BME280;44935;48.944;9.418;2022-09-09T10:08:21;98343.78;;;19.97;44.47
59154;BME280;44935;48.944;9.418;2022-09-09T10:11:00;98329.93;;;19.31;45.44
59154;BME280;44935;48.944;9.418;2022-09-09T10:13:34;98337.51;;;20.99;40.55
59154;BME280;44935;48.944;9.418;2022-09-09T10:16:15;98350.37;;;21.09;40.62
59154;BME280;44935;48.944;9.418;2022-09-09T10:18:55;98345.54;;;20.43;39.96
59154;BME280;44935;48.944;9.418;2022-09-09T10:21:38;98345.21;;;19.71;38.71
59154;BME280;44935;48.944;9.418;2022-09-09T10:24:25;98346.99;;;19.63;39.12
59154;BME280;44935;48.944;9.418;2022-09-09T10:26:57;98353.39;;;19.54;40.44
59154;BME280;44935;48.944;9.418;2022-09-09T10:29:35;98353.27;;;19.31;39.10
59154;BME280;44935;48.944;9.418;2022-09-09T10:32:24;98343.96;;;19.84;37.23
59154;BME280;44935;48.944;9.418;2022-09-09T10:34:56;98343.09;;;20.09;37.47
59154;BME280;44935;48.944;9.418;2022-09-09T10:37:40;98342.67;;;19.75;36.20
59154;BME280;44935;48.944;9.418;2022-09-09T10:40:21;98345.69;;;20.43;35.69
59154;BME280;44935;48.944;9.418;2022-09-09T10:42:50;98341.04;;;20.22;34.81
59154;BME280;44935;48.944;9.418;2022-09-09T10:45:19;98341.87;;;21.11;34.03
59154;BME280;44935;48.944;9.418;2022-09-09T10:48:07;98341.92;;;21.15;33.66
59154;BME280;44935;48.944;9.418;2022-09-09T10:50:47;98344.75;;;21.24;34.00
59154;BME280;44935;48.944;9.418;2022-09-09T10:53:23;98344.68;;;21.12;32.97
59154;BME280;44935;48.944;9.418;2022-09-09T10:55:53;98349.14;;;20.52;34.29
59154;BME280;44935;48.944;9.418;2022-09-09T10:58:27;98355.22;;;21.04;33.49
59154;BME280;44935;48.944;9.418;2022-09-09T11:01:01;98349.59;;;20.39;34.65
59154;BME280;44935;48.944;9.418;2022-09-09T11:03:35;98350.04;;;20.83;34.57
59154;BME280;44935;48.944;9.418;2022-09-09T11:06:06;98347.33;;;20.50;36.31
59154;BME280;44935;48.944;9.418;2022-09-09T11:08:38;98347.58;;;20.66;34.80
59154;BME280;44935;48.944;9.418;2022-09-09T11:11:10;98347.45;;;18.97;38.13
59154;BME280;44935;48.944;9.418;2022-09-09T11:13:45;98345.82;;;20.27;35.96
59154;BME280;44935;48.944;9.418;2022-09-09T11:16:23;98342.16;;;21.66;34.50
59154;BME280;44935;48.944;9.418;2022-09-09T11:18:57;98349.61;;;21.91;34.28
59154;BME280;44935;48.944;9.418;2022-09-09T11:21:30;98349.83;;;21.51;35.20
59154;BME280;44935;48.944;9.418;2022-09-09T11:24:01;98348.71;;;20.74;36.63
59154;BME280;44935;48.944;9.418;2022-09-09T11:26:33;98350.08;;;20.55;36.39
59154;BME280;44935;48.944;9.418;2022-09-09T11:29:20;98339.59;;;19.14;39.04
59154;BME280;44935;48.944;9.418;2022-09-09T11:32:04;98344.16;;;18.71;39.42
59154;BME280;44935;48.944;9.418;2022-09-09T11:34:47;98356.69;;;19.76;39.54
59154;BME280;44935;48.944;9.418;2022-09-09T11:37:49;98384.43;;;19.42;45.74
59154;BME280;44935;48.944;9.418;2022-09-09T11:40:23;98400.21;;;16.92;55.30
59154;BME280;44935;48.944;9.418;2022-09-09T11:43:02;98399.76;;;15.12;61.89
59154;BME280;44935;48.944;9.418;2022-09-09T11:45:32;98411.89;;;17.62;56.80
59154;BME280;44935;48.944;9.418;2022-09-09T11:48:01;98426.17;;;18.26;54.80
59154;BME280;44935;48.944;9.418;2022-09-09T11:50:32;98426.20;;;17.30;56.43
59154;BME280;44935;48.944;9.418;2022-09-09T11:53:14;98431.72;;;17.09;56.45
59154;BME280;44935;48.944;9.418;2022-09-09T11:55:44;98435.57;;;17.64;55.80
59154;BME280;44935;48.944;9.418;2022-09-09T11:58:17;98436.89;;;17.36;56.91
59154;BME280;44935;48.944;9.418;2022-09-09T12:00:46;98436.68;;;17.67;55.97
59154;BME280;44935;48.944;9.418;2022-09-09T12:03:34;98432.94;;;17.96;56.00
59154;BME280;44935;48.944;9.418;2022-09-09T12:06:11;98423.64;;;15.52;62.59
59154;BME280;44935;48.944;9.418;2022-09-09T12:08:41;98416.96;;;16.86;59.45
59154;BME280;44935;48.944;9.418;2022-09-09T12:11:09;98417.32;;;17.49;58.28
59154;BME280;44935;48.944;9.418;2022-09-09T12:13:36;98412.99;;;18.16;57.17
59154;BME280;44935;48.944;9.418;2022-09-09T12:16:03;98411.23;;;19.43;54.46
59154;BME280;44935;48.944;9.418;2022-09-09T12:18:33;98402.76;;;16.33;62.22
59154;BME280;44935;48.944;9.418;2022-09-09T12:21:07;98395.57;;;17.39;58.70
59154;BME280;44935;48.944;9.418;2022-09-09T12:23:45;98393.78;;;18.73;55.65
59154;BME280;44935;48.944;9.418;2022-09-09T12:26:25;98392.36;;;19.69;53.55
59154;BME280;44935;48.944;9.418;2022-09-09T12:29:02;98387.35;;;20.12;51.46
59154;BME280;44935;48.944;9.418;2022-09-09T12:31:38;98382.41;;;17.31;60.68
59154;BME280;44935;48.944;9.418;2022-09-09T12:34:11;98380.74;;;16.66;62.07
59154;BME280;44935;48.944;9.418;2022-09-09T12:36:41;98373.95;;;17.82;60.42
59154;BME280;44935;48.944;9.418;2022-09-09T12:39:15;98380.47;;;19.44;54.27
59154;BME280;44935;48.944;9.418;2022-09-09T12:41:51;98382.44;;;19.47;51.87
59154;BME280;44935;48.944;9.418;2022-09-09T12:44:19;98381.97;;;20.42;51.16
59154;BME280;44935;48.944;9.418;2022-09-09T12:46:46;98379.75;;;20.39;52.27
59154;BME280;44935;48.944;9.418;2022-09-09T12:49:28;98378.07;;;19.57;49.78
59154;BME280;44935;48.944;9.418;2022-09-09T12:51:57;98376.67;;;19.61;53.27
59154;BME280;44935;48.944;9.418;2022-09-09T12:54:24;98370.20;;;20.21;51.08
59154;BME280;44935;48.944;9.418;2022-09-09T12:56:51;98367.13;;;19.81;51.63
59154;BME280;44935;48.944;9.418;2022-09-09T12:59:24;98370.34;;;19.61;49.60
59154;BME280;44935;48.944;9.418;2022-09-09T13:01:56;98376.71;;;19.61;52.55
59154;BME280;44935;48.944;9.418;2022-09-09T13:04:23;98374.88;;;19.30;49.75
59154;BME280;44935;48.944;9.418;2022-09-09T13:06:50;98365.32;;;19.64;49.80
59154;BME280;44935;48.944;9.418;2022-09-09T13:09:17;98358.20;;;20.16;51.05
59154;BME280;44935;48.944;9.418;2022-09-09T13:11:46;98352.61;;;20.71;49.22
59154;BME280;44935;48.944;9.418;2022-09-09T13:14:17;98346.97;;;20.56;45.55
59154;BME280;44935;48.944;9.418;2022-09-09T13:16:54;98345.55;;;20.43;46.69
59154;BME280;44935;48.944;9.418;2022-09-09T13:19:23;98344.59;;;21.15;47.13